Phoenix, AZ (85062)

12:33 PM MST on May 05, 2015 (GMT -0700)
AZCC | | Change Station
CLOSE
Current Station
Personal Weather Station
Location: Phoenix, AZ
Elevation: 1270 ft
Nearby Weather Stations

Elev 1270 ft 33.48 °N, 111.95 °W | Updated 2 seconds ago

Scattered Clouds
Scattered Clouds
77.0 °F
Feels Like 79 °F
N
1.1
Wind Variable Wind from NW
Gusts 3.1 mph

Today
High -- | Low -- °F
--% Chance of Precip.
Yesterday
High -- | Low -- °F
Precip. -- in
5:35 AM 7:13 PM
Full, 97% visible
Pressure 29.85 in
Visibility 10.0 miles
Clouds Few 6000 ft
Few 11000 ft
Scattered Clouds 15000 ft
Heat Index 79 °F
Dew Point 55 °F
Humidity 47%
Rainfall 0.00 in
Snow Depth Not available.
UV 9 out of 12
Pollen 5.20 out of 12
Air Quality Not available.
Flu Activity Local Activity
METAR KPHX 051851Z 28010KT 10SM FEW060 FEW110 SCT150 25/10 A2988 RMK AO2 SLP106 T02500100

More Conditions Fewer Conditions

Pressure 29.85 in
Visibility 10.0 miles
Clouds Few 6000 ft
Few 11000 ft
Scattered Clouds 15000 ft
Heat Index 79 °F
Dew Point 55 °F
Humidity 47%
Rainfall 0.00 in
Snow Depth Not available.
UV 9 out of 12
Pollen 5.20 out of 12
Air Quality Not available.
Flu Activity Local Activity
METAR KPHX 051851Z 28010KT 10SM FEW060 FEW110 SCT150 25/10 A2988 RMK AO2 SLP106 T02500100

More Conditions Fewer Conditions

10-Day Weather Forecast

Almanac

Astronomy

May. 05, 2015 Rise Set
Actual Time
Civil Twilight
Nautical Twilight
Astronomical Twilight
Moon
Length of Visible Light
Length of Day
Tomorrow will be .
, % of the Moon is Illuminated

Today's Extremes

State Highs State Lows

Community

WunderPhotos

Upload Photos

1,818,957 photos uploaded!

WunderBlogs® & News

Nearby

Air Quality

  Air Quality AQ Index Pollutant
Not available.

Snow Depth

Station Depth Elevation

Earthquake Activity

City Distance Mag. Time & Date
Minimum magnitude displayed is 2.5.

Coastal Water Temperatures

Place Temperature

Stations

Nearby Weather Stations

Station Location Temp. Windchill Dew Point Humidity Wind Precip. Elev Updated Type